sensor_id;sensor_type;location;lat;lon;timestamp;pressure;altitude;pressure_sealevel;temperature;humidity
62592;BME280;48659;41.622;2.276;2023-02-28T00:01:23;99187.89;;;3.97;40.30
62592;BME280;48659;41.622;2.276;2023-02-28T00:03:51;99187.88;;;3.41;40.32
62592;BME280;48659;41.622;2.276;2023-02-28T00:06:19;99198.42;;;3.32;41.68
62592;BME280;48659;41.622;2.276;2023-02-28T00:08:46;99196.12;;;3.75;42.03
62592;BME280;48659;41.622;2.276;2023-02-28T00:11:21;99195.76;;;3.40;41.26
62592;BME280;48659;41.622;2.276;2023-02-28T00:13:48;99189.95;;;3.50;42.28
62592;BME280;48659;41.622;2.276;2023-02-28T00:16:18;99194.54;;;3.45;42.83
62592;BME280;48659;41.622;2.276;2023-02-28T00:18:47;99180.49;;;4.15;41.93
62592;BME280;48659;41.622;2.276;2023-02-28T00:21:14;99187.06;;;3.86;41.86
62592;BME280;48659;41.622;2.276;2023-02-28T00:23:42;99176.73;;;4.08;42.42
62592;BME280;48659;41.622;2.276;2023-02-28T00:26:11;99181.55;;;4.08;41.75
62592;BME280;48659;41.622;2.276;2023-02-28T00:28:38;99180.05;;;3.62;42.26
62592;BME280;48659;41.622;2.276;2023-02-28T00:31:05;99185.47;;;3.91;42.25
62592;BME280;48659;41.622;2.276;2023-02-28T00:33:32;99183.23;;;3.79;42.67
62592;BME280;48659;41.622;2.276;2023-02-28T00:36:03;99180.82;;;4.41;40.77
62592;BME280;48659;41.622;2.276;2023-02-28T00:38:31;99177.06;;;4.32;41.42
62592;BME280;48659;41.622;2.276;2023-02-28T00:40:58;99168.64;;;4.02;41.85
62592;BME280;48659;41.622;2.276;2023-02-28T00:43:25;99155.70;;;4.01;39.93
62592;BME280;48659;41.622;2.276;2023-02-28T00:45:55;99168.05;;;3.92;41.61
62592;BME280;48659;41.622;2.276;2023-02-28T00:48:23;99175.28;;;3.52;42.81
62592;BME280;48659;41.622;2.276;2023-02-28T00:50:51;99164.96;;;4.25;42.41
62592;BME280;48659;41.622;2.276;2023-02-28T00:53:18;99165.56;;;3.56;42.86
62592;BME280;48659;41.622;2.276;2023-02-28T00:55:45;99166.63;;;4.21;42.54
62592;BME280;48659;41.622;2.276;2023-02-28T00:58:14;99168.05;;;4.46;41.04
62592;BME280;48659;41.622;2.276;2023-02-28T01:00:41;99170.21;;;4.69;40.46
62592;BME280;48659;41.622;2.276;2023-02-28T01:03:09;99175.23;;;6.58;37.42
62592;BME280;48659;41.622;2.276;2023-02-28T01:05:37;99175.74;;;3.96;41.45
62592;BME280;48659;41.622;2.276;2023-02-28T01:08:05;99157.51;;;4.46;41.30
62592;BME280;48659;41.622;2.276;2023-02-28T01:10:32;99157.16;;;5.65;38.39
62592;BME280;48659;41.622;2.276;2023-02-28T01:13:00;99150.91;;;5.81;38.29
62592;BME280;48659;41.622;2.276;2023-02-28T01:15:27;99151.09;;;4.79;40.91
62592;BME280;48659;41.622;2.276;2023-02-28T01:17:55;99147.71;;;6.32;38.29
62592;BME280;48659;41.622;2.276;2023-02-28T01:20:22;99163.24;;;5.90;38.68
62592;BME280;48659;41.622;2.276;2023-02-28T01:22:50;99154.30;;;7.16;36.72
62592;BME280;48659;41.622;2.276;2023-02-28T01:25:17;99146.94;;;7.54;36.30
62592;BME280;48659;41.622;2.276;2023-02-28T01:27:45;99149.78;;;8.03;35.39
62592;BME280;48659;41.622;2.276;2023-02-28T01:30:20;99150.50;;;8.77;34.21
62592;BME280;48659;41.622;2.276;2023-02-28T01:32:47;99154.78;;;9.80;33.23
62592;BME280;48659;41.622;2.276;2023-02-28T01:35:14;99155.55;;;9.55;32.89
62592;BME280;48659;41.622;2.276;2023-02-28T01:37:41;99159.57;;;9.58;33.03
62592;BME280;48659;41.622;2.276;2023-02-28T01:40:10;99178.73;;;5.92;37.27
62592;BME280;48659;41.622;2.276;2023-02-28T01:42:46;99179.59;;;5.48;36.10
62592;BME280;48659;41.622;2.276;2023-02-28T01:45:24;99178.72;;;5.49;36.44
62592;BME280;48659;41.622;2.276;2023-02-28T01:47:55;99177.77;;;4.16;39.08
62592;BME280;48659;41.622;2.276;2023-02-28T01:50:29;99177.32;;;3.09;40.63
62592;BME280;48659;41.622;2.276;2023-02-28T01:53:02;99163.15;;;3.63;39.89
62592;BME280;48659;41.622;2.276;2023-02-28T01:55:32;99158.61;;;3.54;39.58
62592;BME280;48659;41.622;2.276;2023-02-28T01:58:02;99161.80;;;3.81;39.05
62592;BME280;48659;41.622;2.276;2023-02-28T02:00:32;99171.32;;;3.16;40.95
62592;BME280;48659;41.622;2.276;2023-02-28T02:03:01;99161.28;;;4.47;39.35
62592;BME280;48659;41.622;2.276;2023-02-28T02:05:31;99157.24;;;4.25;39.22
62592;BME280;48659;41.622;2.276;2023-02-28T02:08:03;99164.46;;;4.03;40.49
62592;BME280;48659;41.622;2.276;2023-02-28T02:10:35;99163.74;;;5.09;39.75
62592;BME280;48659;41.622;2.276;2023-02-28T02:13:14;99170.54;;;5.73;38.10
62592;BME280;48659;41.622;2.276;2023-02-28T02:15:53;99150.76;;;4.24;41.11
62592;BME280;48659;41.622;2.276;2023-02-28T02:18:27;99164.14;;;4.15;43.47
62592;BME280;48659;41.622;2.276;2023-02-28T02:21:20;99158.31;;;5.27;43.13
62592;BME280;48659;41.622;2.276;2023-02-28T02:24:05;99152.77;;;4.84;41.05
62592;BME280;48659;41.622;2.276;2023-02-28T02:27:09;99165.41;;;4.88;41.06
62592;BME280;48659;41.622;2.276;2023-02-28T02:30:02;99165.85;;;3.61;41.59
62592;BME280;48659;41.622;2.276;2023-02-28T02:32:48;99169.29;;;3.32;40.83
62592;BME280;48659;41.622;2.276;2023-02-28T02:35:24;99170.36;;;3.14;42.54
62592;BME280;48659;41.622;2.276;2023-02-28T02:37:58;99161.66;;;2.94;43.17
62592;BME280;48659;41.622;2.276;2023-02-28T02:40:33;99152.85;;;3.08;42.84
62592;BME280;48659;41.622;2.276;2023-02-28T02:43:08;99158.59;;;4.55;41.16
62592;BME280;48659;41.622;2.276;2023-02-28T02:45:41;99161.46;;;4.84;43.46
62592;BME280;48659;41.622;2.276;2023-02-28T02:48:26;99136.54;;;4.61;44.70
62592;BME280;48659;41.622;2.276;2023-02-28T02:50:58;99146.57;;;5.12;43.73
62592;BME280;48659;41.622;2.276;2023-02-28T02:53:30;99139.06;;;5.44;40.35
62592;BME280;48659;41.622;2.276;2023-02-28T02:56:01;99139.22;;;5.28;41.21
62592;BME280;48659;41.622;2.276;2023-02-28T02:58:33;99142.67;;;5.07;43.04
62592;BME280;48659;41.622;2.276;2023-02-28T03:01:04;99130.69;;;6.05;41.25
62592;BME280;48659;41.622;2.276;2023-02-28T03:03:32;99130.56;;;4.79;42.72
62592;BME280;48659;41.622;2.276;2023-02-28T03:06:01;99133.49;;;5.60;42.85
62592;BME280;48659;41.622;2.276;2023-02-28T03:08:35;99146.90;;;5.05;41.79
62592;BME280;48659;41.622;2.276;2023-02-28T03:11:04;99142.42;;;5.74;42.29
62592;BME280;48659;41.622;2.276;2023-02-28T03:13:46;99131.42;;;5.27;42.84
62592;BME280;48659;41.622;2.276;2023-02-28T03:16:29;99130.93;;;5.39;42.13
62592;BME280;48659;41.622;2.276;2023-02-28T03:19:08;99121.06;;;5.95;41.28
62592;BME280;48659;41.622;2.276;2023-02-28T03:21:45;99138.31;;;5.64;41.54
62592;BME280;48659;41.622;2.276;2023-02-28T03:24:19;99135.80;;;5.19;42.42
62592;BME280;48659;41.622;2.276;2023-02-28T03:26:54;99144.22;;;5.66;43.08
62592;BME280;48659;41.622;2.276;2023-02-28T03:29:28;99150.07;;;5.22;43.04
62592;BME280;48659;41.622;2.276;2023-02-28T03:32:05;99154.25;;;6.33;40.56
62592;BME280;48659;41.622;2.276;2023-02-28T03:34:39;99157.39;;;7.32;39.36
62592;BME280;48659;41.622;2.276;2023-02-28T03:37:11;99168.04;;;6.48;39.61
62592;BME280;48659;41.622;2.276;2023-02-28T03:39:43;99156.98;;;8.81;36.26
62592;BME280;48659;41.622;2.276;2023-02-28T03:42:21;99169.01;;;7.83;37.37
62592;BME280;48659;41.622;2.276;2023-02-28T03:44:53;99160.95;;;9.31;35.02
62592;BME280;48659;41.622;2.276;2023-02-28T03:47:27;99162.70;;;9.66;35.02
62592;BME280;48659;41.622;2.276;2023-02-28T03:50:00;99169.33;;;9.02;35.40
62592;BME280;48659;41.622;2.276;2023-02-28T03:52:33;99170.49;;;8.17;37.41
62592;BME280;48659;41.622;2.276;2023-02-28T03:55:05;99168.72;;;6.83;39.64
62592;BME280;48659;41.622;2.276;2023-02-28T03:57:37;99173.84;;;5.62;40.90
62592;BME280;48659;41.622;2.276;2023-02-28T04:00:11;99174.80;;;5.37;41.93
62592;BME280;48659;41.622;2.276;2023-02-28T04:02:41;99165.12;;;5.21;44.31
62592;BME280;48659;41.622;2.276;2023-02-28T04:05:09;99162.21;;;5.06;44.03
62592;BME280;48659;41.622;2.276;2023-02-28T04:07:37;99166.74;;;5.05;43.50
62592;BME280;48659;41.622;2.276;2023-02-28T04:10:05;99171.22;;;4.91;44.22
62592;BME280;48659;41.622;2.276;2023-02-28T04:12:34;99167.89;;;5.19;43.47
62592;BME280;48659;41.622;2.276;2023-02-28T04:15:01;99177.34;;;5.19;43.27
62592;BME280;48659;41.622;2.276;2023-02-28T04:17:29;99169.91;;;4.62;44.50
62592;BME280;48659;41.622;2.276;2023-02-28T04:19:56;99172.03;;;6.03;42.41
62592;BME280;48659;41.622;2.276;2023-02-28T04:22:24;99174.98;;;5.20;43.28
62592;BME280;48659;41.622;2.276;2023-02-28T04:24:51;99172.67;;;4.76;45.38
62592;BME280;48659;41.622;2.276;2023-02-28T04:27:20;99178.37;;;4.15;44.51
62592;BME280;48659;41.622;2.276;2023-02-28T04:29:48;99191.17;;;6.12;41.94
62592;BME280;48659;41.622;2.276;2023-02-28T04:32:19;99194.31;;;5.59;41.37
62592;BME280;48659;41.622;2.276;2023-02-28T04:34:46;99197.77;;;7.37;38.29
62592;BME280;48659;41.622;2.276;2023-02-28T04:37:14;99209.68;;;6.63;40.08
62592;BME280;48659;41.622;2.276;2023-02-28T04:39:42;99217.77;;;6.43;39.33
62592;BME280;48659;41.622;2.276;2023-02-28T04:42:10;99207.30;;;8.44;36.57
62592;BME280;48659;41.622;2.276;2023-02-28T04:44:38;99211.48;;;9.44;34.71
62592;BME280;48659;41.622;2.276;2023-02-28T04:47:05;99221.66;;;10.25;34.38
62592;BME280;48659;41.622;2.276;2023-02-28T04:49:33;99222.93;;;8.30;36.57
62592;BME280;48659;41.622;2.276;2023-02-28T04:52:00;99222.63;;;8.67;36.38
62592;BME280;48659;41.622;2.276;2023-02-28T04:54:27;99224.17;;;9.35;34.53
62592;BME280;48659;41.622;2.276;2023-02-28T04:56:55;99216.85;;;9.04;35.65
62592;BME280;48659;41.622;2.276;2023-02-28T04:59:23;99227.33;;;9.25;34.73
62592;BME280;48659;41.622;2.276;2023-02-28T05:01:50;99225.12;;;6.69;38.36
62592;BME280;48659;41.622;2.276;2023-02-28T05:04:18;99239.20;;;5.84;41.39
62592;BME280;48659;41.622;2.276;2023-02-28T05:06:45;99244.24;;;6.42;41.69
62592;BME280;48659;41.622;2.276;2023-02-28T05:09:12;99237.12;;;6.31;40.99
62592;BME280;48659;41.622;2.276;2023-02-28T05:11:40;99240.99;;;5.34;43.78
62592;BME280;48659;41.622;2.276;2023-02-28T05:14:13;99239.03;;;5.65;42.56
62592;BME280;48659;41.622;2.276;2023-02-28T05:16:40;99247.34;;;6.02;40.45
62592;BME280;48659;41.622;2.276;2023-02-28T05:19:08;99251.33;;;5.32;42.44
62592;BME280;48659;41.622;2.276;2023-02-28T05:21:38;99254.71;;;4.56;43.90
62592;BME280;48659;41.622;2.276;2023-02-28T05:24:09;99262.60;;;5.22;42.98
62592;BME280;48659;41.622;2.276;2023-02-28T05:26:38;99281.02;;;4.40;44.48
62592;BME280;48659;41.622;2.276;2023-02-28T05:29:06;99272.47;;;4.69;44.05
62592;BME280;48659;41.622;2.276;2023-02-28T05:31:33;99281.13;;;4.97;44.96
62592;BME280;48659;41.622;2.276;2023-02-28T05:34:01;99287.46;;;5.05;43.49
62592;BME280;48659;41.622;2.276;2023-02-28T05:36:29;99293.35;;;4.35;42.98
62592;BME280;48659;41.622;2.276;2023-02-28T05:38:57;99287.08;;;6.82;40.24
62592;BME280;48659;41.622;2.276;2023-02-28T05:41:25;99284.16;;;7.90;37.78
62592;BME280;48659;41.622;2.276;2023-02-28T05:43:53;99292.46;;;8.54;35.59
62592;BME280;48659;41.622;2.276;2023-02-28T05:46:20;99290.16;;;7.61;35.96
62592;BME280;48659;41.622;2.276;2023-02-28T05:48:48;99295.65;;;7.54;38.34
62592;BME280;48659;41.622;2.276;2023-02-28T05:51:16;99284.41;;;8.71;35.93
62592;BME280;48659;41.622;2.276;2023-02-28T05:53:44;99280.54;;;9.72;35.10
62592;BME280;48659;41.622;2.276;2023-02-28T05:56:12;99281.85;;;9.27;35.44
62592;BME280;48659;41.622;2.276;2023-02-28T05:58:39;99296.13;;;7.22;37.20
62592;BME280;48659;41.622;2.276;2023-02-28T06:01:32;99291.43;;;7.25;36.68
62592;BME280;48659;41.622;2.276;2023-02-28T06:04:00;99285.21;;;7.38;36.44
62592;BME280;48659;41.622;2.276;2023-02-28T06:06:29;99270.46;;;7.63;36.39
62592;BME280;48659;41.622;2.276;2023-02-28T06:08:56;99271.31;;;5.29;39.66
62592;BME280;48659;41.622;2.276;2023-02-28T06:11:24;99271.48;;;4.22;41.30
62592;BME280;48659;41.622;2.276;2023-02-28T06:13:53;99277.21;;;3.64;42.64
62592;BME280;48659;41.622;2.276;2023-02-28T06:16:21;99269.67;;;3.95;43.35
62592;BME280;48659;41.622;2.276;2023-02-28T06:18:49;99278.38;;;3.31;43.65
62592;BME280;48659;41.622;2.276;2023-02-28T06:21:16;99275.28;;;4.13;41.66
62592;BME280;48659;41.622;2.276;2023-02-28T06:23:43;99277.20;;;5.49;39.42
62592;BME280;48659;41.622;2.276;2023-02-28T06:26:12;99267.89;;;6.76;38.93
62592;BME280;48659;41.622;2.276;2023-02-28T06:28:40;99268.87;;;7.75;35.52
62592;BME280;48659;41.622;2.276;2023-02-28T06:31:09;99282.35;;;4.64;39.76
62592;BME280;48659;41.622;2.276;2023-02-28T06:33:38;99296.04;;;7.04;36.82
62592;BME280;48659;41.622;2.276;2023-02-28T06:36:08;99293.25;;;8.17;35.83
62592;BME280;48659;41.622;2.276;2023-02-28T06:38:36;99302.02;;;7.88;36.41
62592;BME280;48659;41.622;2.276;2023-02-28T06:41:05;99301.66;;;8.46;33.81
62592;BME280;48659;41.622;2.276;2023-02-28T06:43:34;99304.66;;;8.92;33.08
62592;BME280;48659;41.622;2.276;2023-02-28T06:46:04;99303.44;;;9.04;32.83
62592;BME280;48659;41.622;2.276;2023-02-28T06:48:32;99308.84;;;8.69;32.36
62592;BME280;48659;41.622;2.276;2023-02-28T06:51:03;99323.30;;;8.90;35.51
62592;BME280;48659;41.622;2.276;2023-02-28T06:53:31;99325.18;;;8.82;33.93
62592;BME280;48659;41.622;2.276;2023-02-28T06:55:58;99328.27;;;8.88;33.21
62592;BME280;48659;41.622;2.276;2023-02-28T06:58:25;99331.84;;;6.91;33.83
62592;BME280;48659;41.622;2.276;2023-02-28T07:00:53;99346.22;;;9.10;33.71
62592;BME280;48659;41.622;2.276;2023-02-28T07:03:20;99339.78;;;6.87;34.72
62592;BME280;48659;41.622;2.276;2023-02-28T07:05:47;99332.02;;;8.22;33.98
62592;BME280;48659;41.622;2.276;2023-02-28T07:08:14;99340.03;;;7.69;35.55
62592;BME280;48659;41.622;2.276;2023-02-28T07:10:42;99349.88;;;7.03;34.67
62592;BME280;48659;41.622;2.276;2023-02-28T07:13:11;99342.02;;;8.11;34.70
62592;BME280;48659;41.622;2.276;2023-02-28T07:15:39;99344.19;;;5.49;37.80
62592;BME280;48659;41.622;2.276;2023-02-28T07:18:07;99360.11;;;3.39;41.11
62592;BME280;48659;41.622;2.276;2023-02-28T07:20:35;99362.02;;;3.17;42.28
62592;BME280;48659;41.622;2.276;2023-02-28T07:23:02;99367.45;;;3.16;43.09
62592;BME280;48659;41.622;2.276;2023-02-28T07:25:29;99377.95;;;2.30;44.31
62592;BME280;48659;41.622;2.276;2023-02-28T07:27:56;99362.11;;;2.44;44.68
62592;BME280;48659;41.622;2.276;2023-02-28T07:30:24;99386.95;;;2.40;44.92
62592;BME280;48659;41.622;2.276;2023-02-28T07:32:51;99379.21;;;2.91;44.48
62592;BME280;48659;41.622;2.276;2023-02-28T07:35:19;99396.00;;;1.93;43.87
62592;BME280;48659;41.622;2.276;2023-02-28T07:37:47;99404.02;;;2.92;43.26
62592;BME280;48659;41.622;2.276;2023-02-28T07:40:16;99406.00;;;3.62;40.67
62592;BME280;48659;41.622;2.276;2023-02-28T07:42:44;99408.37;;;4.44;40.80
62592;BME280;48659;41.622;2.276;2023-02-28T07:45:12;99423.34;;;3.38;42.19
62592;BME280;48659;41.622;2.276;2023-02-28T07:47:39;99427.54;;;3.50;42.60
62592;BME280;48659;41.622;2.276;2023-02-28T07:50:10;99414.62;;;3.87;42.24
62592;BME280;48659;41.622;2.276;2023-02-28T07:52:38;99446.50;;;3.40;41.01
62592;BME280;48659;41.622;2.276;2023-02-28T07:55:07;99438.33;;;3.44;42.24
62592;BME280;48659;41.622;2.276;2023-02-28T07:57:35;99430.34;;;4.01;40.65
62592;BME280;48659;41.622;2.276;2023-02-28T08:00:03;99455.10;;;3.91;40.06
62592;BME280;48659;41.622;2.276;2023-02-28T08:02:32;99453.21;;;4.00;39.11
62592;BME280;48659;41.622;2.276;2023-02-28T08:05:00;99463.98;;;3.46;42.49
62592;BME280;48659;41.622;2.276;2023-02-28T08:07:27;99458.92;;;2.37;42.34
62592;BME280;48659;41.622;2.276;2023-02-28T08:09:55;99463.33;;;3.61;41.47
62592;BME280;48659;41.622;2.276;2023-02-28T08:12:22;99452.13;;;3.05;43.32
62592;BME280;48659;41.622;2.276;2023-02-28T08:14:49;99463.00;;;3.30;41.77
62592;BME280;48659;41.622;2.276;2023-02-28T08:17:16;99469.34;;;3.10;41.70
62592;BME280;48659;41.622;2.276;2023-02-28T08:19:46;99467.68;;;3.00;42.64
62592;BME280;48659;41.622;2.276;2023-02-28T08:22:13;99468.13;;;3.62;40.57
62592;BME280;48659;41.622;2.276;2023-02-28T08:24:42;99465.52;;;4.19;39.72
62592;BME280;48659;41.622;2.276;2023-02-28T08:27:10;99468.16;;;4.74;39.84
62592;BME280;48659;41.622;2.276;2023-02-28T08:29:38;99469.42;;;4.88;41.47
62592;BME280;48659;41.622;2.276;2023-02-28T08:32:05;99472.72;;;6.49;37.26
62592;BME280;48659;41.622;2.276;2023-02-28T08:34:33;99478.53;;;4.85;39.53
62592;BME280;48659;41.622;2.276;2023-02-28T08:37:00;99467.92;;;5.47;38.71
62592;BME280;48659;41.622;2.276;2023-02-28T08:39:28;99471.26;;;5.08;39.13
62592;BME280;48659;41.622;2.276;2023-02-28T08:41:55;99487.90;;;4.27;39.21
62592;BME280;48659;41.622;2.276;2023-02-28T08:44:23;99482.34;;;5.56;39.52
62592;BME280;48659;41.622;2.276;2023-02-28T08:46:50;99477.56;;;5.79;38.35
62592;BME280;48659;41.622;2.276;2023-02-28T08:49:17;99479.14;;;4.95;38.48
62592;BME280;48659;41.622;2.276;2023-02-28T08:51:44;99482.85;;;4.69;38.62
62592;BME280;48659;41.622;2.276;2023-02-28T08:54:12;99491.78;;;5.46;39.73
62592;BME280;48659;41.622;2.276;2023-02-28T08:56:40;99497.09;;;5.89;38.09
62592;BME280;48659;41.622;2.276;2023-02-28T08:59:09;99495.11;;;5.83;38.56
62592;BME280;48659;41.622;2.276;2023-02-28T09:01:36;99493.46;;;4.95;38.76
62592;BME280;48659;41.622;2.276;2023-02-28T09:04:03;99496.98;;;5.39;38.02
62592;BME280;48659;41.622;2.276;2023-02-28T09:06:32;99494.42;;;5.65;37.64
62592;BME280;48659;41.622;2.276;2023-02-28T09:08:59;99510.02;;;6.33;36.42
62592;BME280;48659;41.622;2.276;2023-02-28T09:11:27;99521.31;;;5.81;36.31
62592;BME280;48659;41.622;2.276;2023-02-28T09:13:54;99525.43;;;8.61;34.52
62592;BME280;48659;41.622;2.276;2023-02-28T09:16:22;99523.24;;;9.36;32.19
62592;BME280;48659;41.622;2.276;2023-02-28T09:18:50;99536.06;;;10.58;33.75
62592;BME280;48659;41.622;2.276;2023-02-28T09:21:18;99536.71;;;8.88;32.19
62592;BME280;48659;41.622;2.276;2023-02-28T09:23:48;99539.56;;;10.22;31.77
62592;BME280;48659;41.622;2.276;2023-02-28T09:26:18;99537.11;;;9.16;31.91
62592;BME280;48659;41.622;2.276;2023-02-28T09:28:46;99533.25;;;10.19;31.65
62592;BME280;48659;41.622;2.276;2023-02-28T09:31:22;99531.38;;;9.85;31.67
62592;BME280;48659;41.622;2.276;2023-02-28T09:33:56;99541.39;;;9.20;32.44
62592;BME280;48659;41.622;2.276;2023-02-28T09:36:26;99534.26;;;9.48;32.60
62592;BME280;48659;41.622;2.276;2023-02-28T09:38:53;99536.89;;;10.08;31.20
62592;BME280;48659;41.622;2.276;2023-02-28T09:41:23;99546.30;;;10.24;31.31
62592;BME280;48659;41.622;2.276;2023-02-28T09:43:54;99538.66;;;11.03;31.31
62592;BME280;48659;41.622;2.276;2023-02-28T09:46:30;99545.78;;;10.88;30.60
62592;BME280;48659;41.622;2.276;2023-02-28T09:49:00;99558.35;;;8.29;33.61
62592;BME280;48659;41.622;2.276;2023-02-28T09:51:39;99549.16;;;10.31;31.62
62592;BME280;48659;41.622;2.276;2023-02-28T09:54:27;99557.82;;;10.95;32.18
62592;BME280;48659;41.622;2.276;2023-02-28T09:56:58;99553.89;;;11.75;29.86
62592;BME280;48659;41.622;2.276;2023-02-28T09:59:36;99552.35;;;11.52;31.27
62592;BME280;48659;41.622;2.276;2023-02-28T10:02:19;99547.46;;;12.03;28.33
62592;BME280;48659;41.622;2.276;2023-02-28T10:04:51;99549.10;;;11.98;28.36
62592;BME280;48659;41.622;2.276;2023-02-28T10:07:39;99552.81;;;12.34;28.65
62592;BME280;48659;41.622;2.276;2023-02-28T10:10:20;99554.18;;;12.42;28.70
62592;BME280;48659;41.622;2.276;2023-02-28T10:12:51;99554.26;;;11.78;28.71
62592;BME280;48659;41.622;2.276;2023-02-28T10:15:22;99549.50;;;11.87;28.59
62592;BME280;48659;41.622;2.276;2023-02-28T10:17:54;99550.01;;;9.05;30.81
62592;BME280;48659;41.622;2.276;2023-02-28T10:20:24;99547.05;;;11.54;30.39
62592;BME280;48659;41.622;2.276;2023-02-28T10:22:56;99554.98;;;12.56;30.18
62592;BME280;48659;41.622;2.276;2023-02-28T10:25:26;99556.29;;;12.36;28.42
62592;BME280;48659;41.622;2.276;2023-02-28T10:27:54;99558.71;;;11.72;29.03
62592;BME280;48659;41.622;2.276;2023-02-28T10:30:26;99560.99;;;10.31;30.86
62592;BME280;48659;41.622;2.276;2023-02-28T10:32:53;99580.86;;;8.05;33.96
62592;BME280;48659;41.622;2.276;2023-02-28T10:35:23;99576.36;;;10.02;31.76
62592;BME280;48659;41.622;2.276;2023-02-28T10:37:54;99587.06;;;8.63;32.85
62592;BME280;48659;41.622;2.276;2023-02-28T10:40:30;99584.89;;;7.44;35.03
62592;BME280;48659;41.622;2.276;2023-02-28T10:42:59;99588.14;;;7.88;34.28
62592;BME280;48659;41.622;2.276;2023-02-28T10:45:29;99578.33;;;9.62;31.87
62592;BME280;48659;41.622;2.276;2023-02-28T10:48:01;99575.75;;;10.83;34.38
62592;BME280;48659;41.622;2.276;2023-02-28T10:50:35;99575.45;;;11.59;30.20
62592;BME280;48659;41.622;2.276;2023-02-28T10:54:16;99581.96;;;10.83;30.14
62592;BME280;48659;41.622;2.276;2023-02-28T10:56:44;99585.13;;;10.84;30.23
62592;BME280;48659;41.622;2.276;2023-02-28T10:59:27;99590.52;;;11.20;29.84
62592;BME280;48659;41.622;2.276;2023-02-28T11:01:55;99597.64;;;9.44;32.57
62592;BME280;48659;41.622;2.276;2023-02-28T11:04:34;99598.48;;;9.30;33.39
62592;BME280;48659;41.622;2.276;2023-02-28T11:07:04;99601.86;;;7.78;34.76
62592;BME280;48659;41.622;2.276;2023-02-28T11:09:33;99605.36;;;7.84;34.95
62592;BME280;48659;41.622;2.276;2023-02-28T11:12:02;99605.90;;;8.87;34.63
62592;BME280;48659;41.622;2.276;2023-02-28T11:14:33;99611.93;;;8.14;35.45
62592;BME280;48659;41.622;2.276;2023-02-28T11:17:19;99602.36;;;9.92;35.95
62592;BME280;48659;41.622;2.276;2023-02-28T11:19:51;99600.74;;;11.20;31.74
62592;BME280;48659;41.622;2.276;2023-02-28T11:22:24;99601.57;;;9.74;32.38
62592;BME280;48659;41.622;2.276;2023-02-28T11:24:56;99597.23;;;11.49;30.59
62592;BME280;48659;41.622;2.276;2023-02-28T11:27:33;99595.42;;;11.62;32.01
62592;BME280;48659;41.622;2.276;2023-02-28T11:30:28;99600.56;;;9.55;32.85
62592;BME280;48659;41.622;2.276;2023-02-28T11:32:57;99601.29;;;10.11;32.66
62592;BME280;48659;41.622;2.276;2023-02-28T11:35:27;99597.14;;;11.01;31.16
62592;BME280;48659;41.622;2.276;2023-02-28T11:37:56;99594.31;;;12.98;30.36
62592;BME280;48659;41.622;2.276;2023-02-28T11:40:31;99586.11;;;12.33;28.52
62592;BME280;48659;41.622;2.276;2023-02-28T11:43:24;99581.21;;;11.47;29.95
62592;BME280;48659;41.622;2.276;2023-02-28T11:46:05;99593.03;;;9.26;33.87
62592;BME280;48659;41.622;2.276;2023-02-28T11:48:41;99593.91;;;9.86;32.42
62592;BME280;48659;41.622;2.276;2023-02-28T11:51:26;99586.39;;;9.76;32.63
62592;BME280;48659;41.622;2.276;2023-02-28T11:54:08;99584.86;;;10.72;32.76
62592;BME280;48659;41.622;2.276;2023-02-28T11:56:42;99588.84;;;12.48;31.17
62592;BME280;48659;41.622;2.276;2023-02-28T11:59:26;99584.97;;;12.17;29.92
62592;BME280;48659;41.622;2.276;2023-02-28T12:02:14;99582.63;;;13.32;28.10
62592;BME280;48659;41.622;2.276;2023-02-28T12:04:53;99577.36;;;13.62;27.63
62592;BME280;48659;41.622;2.276;2023-02-28T12:07:34;99580.46;;;14.19;26.98
62592;BME280;48659;41.622;2.276;2023-02-28T12:10:14;99596.11;;;11.91;29.33
62592;BME280;48659;41.622;2.276;2023-02-28T12:12:54;99588.43;;;13.73;29.61
62592;BME280;48659;41.622;2.276;2023-02-28T12:15:39;99585.88;;;13.92;28.03
62592;BME280;48659;41.622;2.276;2023-02-28T12:18:28;99584.85;;;13.75;28.31
62592;BME280;48659;41.622;2.276;2023-02-28T12:21:04;99589.73;;;13.25;28.46
62592;BME280;48659;41.622;2.276;2023-02-28T12:23:48;99592.02;;;12.58;32.44
62592;BME280;48659;41.622;2.276;2023-02-28T12:26:20;99591.97;;;12.37;28.65
62592;BME280;48659;41.622;2.276;2023-02-28T12:28:57;99586.90;;;12.81;28.58
62592;BME280;48659;41.622;2.276;2023-02-28T12:31:30;99577.75;;;13.52;28.53
62592;BME280;48659;41.622;2.276;2023-02-28T12:34:06;99581.21;;;11.19;30.73
62592;BME280;48659;41.622;2.276;2023-02-28T12:36:36;99579.58;;;12.24;29.73
62592;BME280;48659;41.622;2.276;2023-02-28T12:39:08;99576.46;;;10.85;30.96
62592;BME280;48659;41.622;2.276;2023-02-28T12:41:41;99572.06;;;10.52;32.28
62592;BME280;48659;41.622;2.276;2023-02-28T12:44:14;99574.74;;;10.49;32.51
62592;BME280;48659;41.622;2.276;2023-02-28T12:46:45;99573.50;;;10.65;32.69
62592;BME280;48659;41.622;2.276;2023-02-28T12:49:17;99572.24;;;9.84;33.36
62592;BME280;48659;41.622;2.276;2023-02-28T12:51:47;99568.09;;;10.10;32.90
62592;BME280;48659;41.622;2.276;2023-02-28T12:54:21;99568.65;;;9.58;33.28
62592;BME280;48659;41.622;2.276;2023-02-28T12:56:57;99564.60;;;10.83;32.16
62592;BME280;48659;41.622;2.276;2023-02-28T12:59:34;99562.71;;;10.66;32.80
62592;BME280;48659;41.622;2.276;2023-02-28T13:05:03;99556.25;;;12.16;31.24
62592;BME280;48659;41.622;2.276;2023-02-28T13:07:58;99556.66;;;11.86;30.70
62592;BME280;48659;41.622;2.276;2023-02-28T13:10:40;99556.67;;;11.22;31.43
62592;BME280;48659;41.622;2.276;2023-02-28T13:13:14;99559.73;;;10.27;33.54
62592;BME280;48659;41.622;2.276;2023-02-28T13:15:58;99565.82;;;10.31;33.35
62592;BME280;48659;41.622;2.276;2023-02-28T13:18:31;99559.95;;;11.24;32.30
62592;BME280;48659;41.622;2.276;2023-02-28T13:20:59;99557.82;;;11.28;31.91
62592;BME280;48659;41.622;2.276;2023-02-28T13:24:02;99555.32;;;11.23;32.16
62592;BME280;48659;41.622;2.276;2023-02-28T13:27:24;99557.37;;;10.86;32.22
62592;BME280;48659;41.622;2.276;2023-02-28T13:29:59;99565.11;;;10.39;32.99
62592;BME280;48659;41.622;2.276;2023-02-28T13:32:34;99563.52;;;10.97;32.26
62592;BME280;48659;41.622;2.276;2023-02-28T13:35:37;99566.55;;;9.86;33.75